Time;durP1;ratioP1;P1;durP2;ratioP2;P2;SDS_P1;SDS_P2;PMS_P1;PMS_P2;Temp;Humidity;BMP_temperature;BMP_pressure;BME280_temperature;BME280_humidity;BME280_pressure;Samples;Min_cycle;Max_cycle;Signal;HPM_P1;HPM_P2
2023/12/17 00:00:22;;;;;;;12.90;6.20;;;;;;;-145.69;68.94;52448.34;4937153;29;20234;-79
2023/12/17 00:02:49;;;;;;;9.87;5.47;;;;;;;-145.69;68.72;52454.28;4936953;29;20204;-79
2023/12/17 00:05:16;;;;;;;12.73;5.50;;;;;;;-145.69;69.31;52428.53;4936238;29;20666;-79
2023/12/17 00:07:42;;;;;;;11.13;6.10;;;;;;;-145.69;69.76;52430.53;4936911;29;20204;-79
2023/12/17 00:10:09;;;;;;;11.37;5.70;;;;;;;-145.69;70.23;52432.50;4935991;29;20251;-79
2023/12/17 00:12:37;;;;;;;11.90;5.13;;;;;;;-145.69;69.16;52452.31;4936726;29;20549;-78
2023/12/17 00:15:03;;;;;;;9.30;5.23;;;;;;;-145.69;69.49;52424.59;4933722;29;20228;-79
2023/12/17 00:17:30;;;;;;;12.33;5.17;;;;;;;-145.69;69.33;52432.50;4935979;29;20262;-79
2023/12/17 00:19:56;;;;;;;8.03;4.63;;;;;;;-145.69;69.22;52420.63;4936496;29;20670;-79
2023/12/17 00:22:23;;;;;;;13.17;5.17;;;;;;;-145.69;68.72;52448.34;4936733;29;20233;-79
2023/12/17 00:24:49;;;;;;;10.03;4.60;;;;;;;-145.69;69.11;52440.44;4936477;29;20345;-78
2023/12/17 00:27:16;;;;;;;9.83;4.63;;;;;;;-145.69;68.87;52432.50;4926435;29;20271;-78
2023/12/17 00:29:43;;;;;;;7.87;4.83;;;;;;;-145.69;68.75;52444.38;4917658;29;20223;-78
2023/12/17 00:32:10;;;;;;;10.13;4.80;;;;;;;-145.69;68.35;52420.63;4917401;29;20208;-78
2023/12/17 00:34:36;;;;;;;11.17;4.97;;;;;;;-145.69;68.64;52442.41;4924152;29;20263;-78
2023/12/17 00:37:03;;;;;;;7.37;4.20;;;;;;;-145.69;68.69;52452.31;4936460;29;20207;-78
2023/12/17 00:39:29;;;;;;;10.27;4.43;;;;;;;-145.69;68.34;52442.41;4936331;29;20215;-79
2023/12/17 00:41:56;;;;;;;6.50;4.13;;;;;;;-145.69;68.12;52438.44;4936172;29;20595;-78
2023/12/17 00:44:22;;;;;;;8.63;3.90;;;;;;;-145.69;68.54;52408.75;4923785;29;20250;-78
2023/12/17 00:46:50;;;;;;;5.40;3.43;;;;;;;-145.69;67.97;52440.44;4917416;29;20253;-78
2023/12/17 00:49:16;;;;;;;7.87;4.47;;;;;;;-145.69;68.74;52428.53;4917169;29;20212;-79
2023/12/17 00:51:43;;;;;;;9.73;4.27;;;;;;;-145.69;68.57;52442.41;4917134;29;20212;-79
2023/12/17 00:54:09;;;;;;;6.67;3.73;;;;;;;-145.69;68.69;52430.53;4916944;29;20723;-79
2023/12/17 00:56:35;;;;;;;7.60;4.00;;;;;;;-145.69;69.87;52454.28;4917007;29;20691;-78
2023/12/17 00:59:02;;;;;;;9.10;3.50;;;;;;;-145.69;69.79;52428.53;4917273;29;20211;-79
2023/12/17 01:01:28;;;;;;;6.20;3.47;;;;;;;-145.69;69.50;52430.53;4917550;29;20204;-78
2023/12/17 01:03:56;;;;;;;6.50;3.33;;;;;;;-145.69;69.04;52432.50;4918414;29;20209;-79
2023/12/17 01:06:22;;;;;;;5.80;3.40;;;;;;;-145.69;68.92;52438.44;4935542;29;20200;-80
2023/12/17 01:08:49;;;;;;;12.10;3.20;;;;;;;-145.69;68.69;52412.69;4935820;29;20643;-79
2023/12/17 01:11:15;;;;;;;5.50;3.33;;;;;;;-145.69;68.99;52458.25;4935689;29;20214;-78
2023/12/17 01:13:42;;;;;;;4.13;2.40;;;;;;;-145.69;69.26;52438.44;4935826;29;20255;-80
2023/12/17 01:16:08;;;;;;;5.03;2.77;;;;;;;-145.69;69.09;52438.44;4935756;29;20323;-79
2023/12/17 01:18:35;;;;;;;5.45;3.20;;;;;;;-145.69;69.14;52379.03;4922392;29;20867;-76
2023/12/17 01:21:03;;;;;;;3.87;2.37;;;;;;;-145.69;68.72;52428.53;4916620;29;20215;-80
2023/12/17 01:23:29;;;;;;;5.10;2.30;;;;;;;-145.69;68.66;52440.44;4916953;29;20267;-79
2023/12/17 01:25:56;;;;;;;2.67;2.03;;;;;;;-145.69;68.93;52444.38;4916928;29;20212;-79
2023/12/17 01:28:22;;;;;;;3.50;2.50;;;;;;;-145.69;69.54;52412.69;4918119;29;20707;-77
2023/12/17 01:30:48;;;;;;;3.43;2.10;;;;;;;-145.69;69.01;52432.50;4922987;29;20208;-77
2023/12/17 01:33:15;;;;;;;5.33;2.03;;;;;;;-145.69;69.61;52444.38;4922978;29;20255;-78
2023/12/17 01:35:41;;;;;;;2.70;1.90;;;;;;;-145.69;68.94;52454.28;4924212;29;20231;-78
2023/12/17 01:38:09;;;;;;;3.73;2.30;;;;;;;-145.69;68.95;52428.53;4923109;29;20690;-77
2023/12/17 01:40:36;;;;;;;3.83;2.23;;;;;;;-145.69;68.53;52446.38;4922802;29;20608;-77
2023/12/17 01:43:03;;;;;;;4.90;2.53;;;;;;;-145.69;68.46;52454.28;4923035;29;20211;-77
2023/12/17 01:45:29;;;;;;;2.80;1.93;;;;;;;-145.69;68.06;52468.16;4922937;29;20208;-78
2023/12/17 01:47:56;;;;;;;3.00;2.30;;;;;;;-145.69;67.77;52424.59;4922751;29;20667;-77
2023/12/17 01:50:22;;;;;;;2.10;1.90;;;;;;;-145.69;68.24;52442.41;4922803;29;20211;-77
2023/12/17 01:52:49;;;;;;;2.07;1.60;;;;;;;-145.69;68.69;52438.44;4935799;29;20207;-76
2023/12/17 01:55:17;;;;;;;3.33;1.90;;;;;;;-145.69;68.36;52430.53;4941901;29;20238;-79
2023/12/17 01:57:44;;;;;;;2.23;1.60;;;;;;;-145.69;68.29;52489.94;4941810;29;20211;-78
2023/12/17 02:00:12;;;;;;;2.47;1.77;;;;;;;-145.69;68.35;52454.28;4941975;29;20206;-78
2023/12/17 02:02:39;;;;;;;2.40;1.67;;;;;;;-145.69;68.02;52440.44;4941693;29;20282;-79
2023/12/17 02:05:06;;;;;;;1.97;1.43;;;;;;;-145.69;68.77;52468.16;4941243;29;20203;-79
2023/12/17 02:07:33;;;;;;;2.70;2.03;;;;;;;-145.69;68.24;52448.34;4941559;29;20259;-78
2023/12/17 02:09:59;;;;;;;2.33;1.77;;;;;;;-145.69;68.58;52476.06;4925615;29;20244;-78
2023/12/17 02:12:29;;;;;;;2.13;1.70;;;;;;;-145.69;68.60;52375.06;4922505;29;20216;-79
2023/12/17 02:14:55;;;;;;;2.33;1.70;;;;;;;-145.69;68.27;52428.53;4931176;29;20227;-79
2023/12/17 02:17:26;;;;;;;2.63;1.83;;;;;;;-145.69;69.03;52424.59;4941415;29;20211;-78
2023/12/17 02:19:53;;;;;;;3.33;1.70;;;;;;;-145.69;68.55;52440.44;4941739;29;20274;-78
2023/12/17 02:22:19;;;;;;;4.03;2.20;;;;;;;-145.69;68.14;52464.19;4941440;29;20199;-78
2023/12/17 02:24:47;;;;;;;2.57;1.90;;;;;;;-145.69;67.87;52444.38;4941614;29;20274;-78
2023/12/17 02:27:20;;;;;;;6.53;2.23;;;;;;;-145.69;67.64;52444.38;4923572;29;20208;-78
2023/12/17 02:29:46;;;;;;;6.97;2.00;;;;;;;-145.69;67.90;52404.78;4922423;29;20227;-78
2023/12/17 02:32:14;;;;;;;4.23;1.80;;;;;;;-145.69;68.61;52438.44;4922692;29;20608;-78
2023/12/17 02:34:40;;;;;;;4.13;2.13;;;;;;;-145.69;68.46;52452.31;4928291;29;20208;-77
2023/12/17 02:37:07;;;;;;;2.87;1.80;;;;;;;-145.69;68.16;52470.13;4941478;29;20233;-78
2023/12/17 02:39:33;;;;;;;3.70;1.90;;;;;;;-145.69;68.30;52426.56;4940098;29;20203;-78
2023/12/17 02:42:01;;;;;;;3.57;2.10;;;;;;;-145.69;67.96;52436.47;4937067;29;20207;-78
2023/12/17 02:44:28;;;;;;;4.07;2.20;;;;;;;-145.69;68.59;52448.34;4938235;29;20207;-77
2023/12/17 02:46:54;;;;;;;2.93;1.63;;;;;;;-145.69;67.72;52436.47;4938414;29;20211;-78
2023/12/17 02:49:21;;;;;;;2.33;1.57;;;;;;;-145.69;67.75;52434.47;4938537;29;20203;-77
2023/12/17 02:51:47;;;;;;;3.40;1.97;;;;;;;-145.69;67.92;52406.75;4938289;29;20206;-77
2023/12/17 02:54:14;;;;;;;3.17;1.87;;;;;;;-145.69;67.75;52466.16;4938358;29;20204;-77
2023/12/17 02:56:41;;;;;;;2.00;1.77;;;;;;;-145.69;67.75;52436.47;4938022;29;20698;-77
2023/12/17 02:59:10;;;;;;;2.37;1.70;;;;;;;-145.69;68.00;52416.66;4937239;29;20214;-78
2023/12/17 03:01:37;;;;;;;3.00;1.80;;;;;;;-145.69;67.60;52454.28;4938116;29;20230;-77
2023/12/17 03:04:04;;;;;;;6.30;1.60;;;;;;;-145.69;69.04;52420.63;4937679;29;20203;-77
2023/12/17 03:06:31;;;;;;;2.30;1.60;;;;;;;-145.69;68.32;52478.06;4938043;29;20215;-77
2023/12/17 03:08:57;;;;;;;2.80;2.03;;;;;;;-145.69;68.15;52472.13;4937994;29;20259;-78
2023/12/17 03:11:24;;;;;;;2.47;1.90;;;;;;;-145.69;68.10;52448.34;4937828;29;20199;-77
2023/12/17 03:13:51;;;;;;;2.43;1.70;;;;;;;-145.69;68.74;52440.44;4937721;29;20559;-77
2023/12/17 03:16:18;;;;;;;3.30;1.70;;;;;;;-145.69;68.46;52402.78;4935264;29;20701;-76
2023/12/17 03:18:45;;;;;;;4.77;2.17;;;;;;;-145.69;68.78;52424.59;4918834;29;20240;-76
2023/12/17 03:21:13;;;;;;;2.70;1.70;;;;;;;-145.69;69.04;52424.59;4919045;29;20208;-79
2023/12/17 03:23:39;;;;;;;2.10;1.60;;;;;;;-145.69;68.58;52456.28;4918625;29;20204;-78
2023/12/17 03:26:06;;;;;;;2.20;1.83;;;;;;;-145.69;68.14;52460.22;4918517;29;20680;-77
2023/12/17 03:28:33;;;;;;;1.93;1.63;;;;;;;-145.69;67.73;52454.28;4918385;29;20211;-76
2023/12/17 03:31:00;;;;;;;3.87;1.80;;;;;;;-145.69;67.86;52440.44;4918557;29;20200;-78
2023/12/17 03:33:27;;;;;;;1.77;1.40;;;;;;;-145.69;68.40;52402.78;4919178;29;20215;-78
2023/12/17 03:35:54;;;;;;;2.00;1.50;;;;;;;-145.69;67.51;52430.53;4933122;29;20698;-78
2023/12/17 03:38:20;;;;;;;2.73;1.63;;;;;;;-145.69;67.43;52460.22;4937346;29;20204;-79
2023/12/17 03:40:47;;;;;;;1.80;1.23;;;;;;;-145.69;67.58;52456.28;4937073;29;20258;-79
2023/12/17 03:43:14;;;;;;;2.10;1.30;;;;;;;-145.69;67.75;52446.38;4937416;29;20203;-78
2023/12/17 03:45:40;;;;;;;2.13;1.60;;;;;;;-145.69;67.57;52434.47;4937202;29;20211;-79
2023/12/17 03:48:07;;;;;;;3.60;1.80;;;;;;;-145.69;67.92;52414.69;4937331;29;20648;-78
2023/12/17 03:50:35;;;;;;;2.83;1.60;;;;;;;-145.69;67.98;52420.63;4935890;29;20208;-79
2023/12/17 03:53:01;;;;;;;2.10;1.60;;;;;;;-145.69;67.96;52470.13;4936084;29;20208;-78
2023/12/17 03:55:28;;;;;;;1.93;1.40;;;;;;;-145.69;68.54;52466.16;4937401;29;20230;-79
2023/12/17 03:57:54;;;;;;;2.33;1.60;;;;;;;-145.69;68.15;52434.47;4937318;29;20658;-79
2023/12/17 04:00:21;;;;;;;1.40;1.30;;;;;;;-145.69;68.13;52444.38;4936993;29;20204;-78
2023/12/17 04:02:47;;;;;;;2.40;1.60;;;;;;;-145.69;68.36;52420.63;4937010;29;20210;-76
2023/12/17 04:05:14;;;;;;;2.37;1.67;;;;;;;-145.69;68.57;52428.53;4936746;29;20215;-79
2023/12/17 04:07:41;;;;;;;2.17;1.43;;;;;;;-145.69;68.89;52450.31;4935942;29;20218;-78
2023/12/17 04:10:09;;;;;;;3.07;1.80;;;;;;;-145.69;68.67;52432.50;4935245;29;20576;-77
2023/12/17 04:12:36;;;;;;;2.90;1.90;;;;;;;-145.69;68.45;52450.31;4933809;29;20531;-76
2023/12/17 04:15:03;;;;;;;2.80;1.73;;;;;;;-145.69;68.25;52464.19;4936760;29;20207;-76
2023/12/17 04:17:30;;;;;;;3.60;1.80;;;;;;;-145.69;68.97;52410.72;4936649;29;20674;-76
2023/12/17 04:19:56;;;;;;;3.23;2.20;;;;;;;-145.69;68.63;52438.44;4936671;29;20563;-78
2023/12/17 04:22:23;;;;;;;3.97;2.00;;;;;;;-145.69;69.30;52434.47;4936439;29;20235;-78
2023/12/17 04:24:51;;;;;;;3.57;2.40;;;;;;;-145.69;68.96;52446.38;4929966;29;20263;-78
2023/12/17 04:27:17;;;;;;;5.43;2.57;;;;;;;-145.69;68.84;52452.31;4917587;29;20282;-79
2023/12/17 04:29:43;;;;;;;3.43;2.20;;;;;;;-145.69;68.83;52414.69;4917509;29;20203;-78
2023/12/17 04:32:11;;;;;;;3.67;2.23;;;;;;;-145.69;69.34;52446.38;4927363;29;20203;-79
2023/12/17 04:34:38;;;;;;;3.43;2.13;;;;;;;-145.69;68.99;52440.44;4936295;29;20259;-78
2023/12/17 04:37:04;;;;;;;3.53;2.17;;;;;;;-145.69;68.93;52454.28;4936122;29;20258;-78
2023/12/17 04:39:30;;;;;;;4.23;2.13;;;;;;;-145.69;69.03;52432.50;4936304;29;20600;-78
2023/12/17 04:41:58;;;;;;;4.23;2.30;;;;;;;-145.69;68.67;52448.34;4935585;29;20207;-79
2023/12/17 04:44:25;;;;;;;3.33;1.97;;;;;;;-145.69;68.51;52428.53;4936275;29;20214;-78
2023/12/17 04:46:52;;;;;;;3.67;2.37;;;;;;;-145.69;68.17;52448.34;4936242;29;20203;-78
2023/12/17 04:49:18;;;;;;;4.53;2.27;;;;;;;-145.69;68.57;52394.88;4936022;29;20199;-76
2023/12/17 04:51:45;;;;;;;3.33;2.00;;;;;;;-145.69;68.76;52432.50;4936262;29;20655;-77
2023/12/17 04:54:14;;;;;;;3.57;1.90;;;;;;;-145.69;68.32;52456.28;4936394;29;20263;-79
2023/12/17 04:56:40;;;;;;;3.53;2.03;;;;;;;-145.69;68.05;52434.47;4936163;29;20241;-78
2023/12/17 04:59:08;;;;;;;3.23;1.80;;;;;;;-145.69;68.10;52464.19;4935221;29;20211;-77
2023/12/17 05:01:35;;;;;;;3.03;2.10;;;;;;;-145.69;67.97;52420.63;4935893;29;20211;-78
2023/12/17 05:04:01;;;;;;;3.63;2.10;;;;;;;-145.69;67.77;52450.31;4935505;29;20204;-77
2023/12/17 05:06:27;;;;;;;2.87;1.80;;;;;;;-145.69;67.61;52428.53;4936078;29;20207;-79
2023/12/17 05:08:54;;;;;;;2.30;1.80;;;;;;;-145.69;67.73;52440.44;4935788;29;20246;-78
2023/12/17 05:11:20;;;;;;;2.10;1.43;;;;;;;-145.69;67.65;52462.22;4935954;29;20204;-78
2023/12/17 05:13:47;;;;;;;3.80;1.93;;;;;;;-145.69;67.58;52464.19;4935858;29;20212;-78
2023/12/17 05:16:15;;;;;;;3.43;2.00;;;;;;;-145.69;67.92;52458.25;4934946;29;20236;-78
2023/12/17 05:18:41;;;;;;;2.83;1.83;;;;;;;-145.69;68.12;52422.59;4935675;29;20211;-78
2023/12/17 05:21:09;;;;;;;2.97;1.93;;;;;;;-145.69;67.72;52491.91;4935807;29;20203;-78
2023/12/17 05:23:35;;;;;;;3.67;1.87;;;;;;;-145.69;66.90;52396.84;4935766;29;20663;-78
2023/12/17 05:26:01;;;;;;;1.70;1.60;;;;;;;-145.69;66.19;52420.63;4935693;29;20208;-79
2023/12/17 05:28:28;;;;;;;1.80;1.47;;;;;;;-145.69;66.43;52406.75;4935583;29;20207;-78
2023/12/17 05:30:54;;;;;;;2.50;1.67;;;;;;;-145.69;66.26;52422.59;4918858;29;20219;-78
2023/12/17 05:33:22;;;;;;;3.63;2.00;;;;;;;-145.69;65.96;52428.53;4917360;29;20217;-78
2023/12/17 05:35:49;;;;;;;2.63;1.77;;;;;;;-145.69;65.83;52416.66;4916622;29;20227;-78
2023/12/17 05:38:16;;;;;;;3.87;2.00;;;;;;;-145.69;66.41;52464.19;4916708;29;20204;-79
2023/12/17 05:40:42;;;;;;;2.55;1.65;;;;;;;-145.69;66.75;52406.75;4916256;29;20478;-78
2023/12/17 05:43:09;;;;;;;2.47;1.60;;;;;;;-145.69;66.32;52476.06;4916231;29;20204;-78
2023/12/17 05:45:35;;;;;;;2.30;1.60;;;;;;;-145.69;66.21;52440.44;4916447;29;20227;-78
2023/12/17 05:48:02;;;;;;;2.13;1.70;;;;;;;-145.69;66.30;52424.59;4916689;29;20208;-78
2023/12/17 05:50:29;;;;;;;3.13;1.63;;;;;;;-145.69;65.84;52396.84;4917498;29;20216;-78
2023/12/17 05:52:56;;;;;;;3.47;1.67;;;;;;;-145.69;66.16;52464.19;4935371;29;20214;-79
2023/12/17 05:55:22;;;;;;;1.80;1.53;;;;;;;-145.69;65.54;52448.34;4934612;29;20206;-79
2023/12/17 05:57:50;;;;;;;2.50;1.53;;;;;;;-145.69;65.51;52394.88;4934590;29;20226;-79
2023/12/17 06:00:17;;;;;;;1.70;1.60;;;;;;;-145.69;65.62;52442.41;4935297;29;20310;-78
2023/12/17 06:02:43;;;;;;;2.27;1.70;;;;;;;-145.69;65.34;52408.75;4934921;29;20222;-79
2023/12/17 06:05:10;;;;;;;2.20;1.60;;;;;;;-145.69;65.64;52446.38;4935532;29;20203;-78
2023/12/17 06:07:38;;;;;;;2.43;1.70;;;;;;;-145.69;64.57;52388.94;4922266;29;20216;-78
2023/12/17 06:10:05;;;;;;;2.70;1.47;;;;;;;-145.69;65.01;52400.81;4915852;29;20243;-78
2023/12/17 06:12:32;;;;;;;2.13;1.43;;;;;;;-145.69;65.03;52412.69;4917281;29;20238;-79
2023/12/17 06:14:58;;;;;;;2.17;1.70;;;;;;;-145.69;64.39;52464.19;4933656;29;20204;-78
2023/12/17 06:17:24;;;;;;;2.00;1.60;;;;;;;-145.69;64.59;52468.16;4938828;29;20721;-78
2023/12/17 06:19:51;;;;;;;2.73;1.60;;;;;;;-145.69;64.25;52442.41;4939025;29;20211;-79
2023/12/17 06:22:18;;;;;;;4.47;1.60;;;;;;;-145.69;63.99;52398.84;4938667;29;20574;-78
2023/12/17 06:24:46;;;;;;;2.50;1.67;;;;;;;-145.69;64.16;52426.56;4924708;29;20215;-80
2023/12/17 06:27:15;;;;;;;2.83;1.23;;;;;;;-145.69;64.09;52428.53;4935859;29;20208;-78
2023/12/17 06:29:41;;;;;;;2.17;1.30;;;;;;;-145.69;63.99;52468.16;4938897;29;20299;-79
2023/12/17 06:32:08;;;;;;;2.20;1.60;;;;;;;-145.69;64.19;52384.97;4938599;29;20258;-78
2023/12/17 06:34:34;;;;;;;1.40;1.30;;;;;;;-145.69;63.86;52444.38;4938419;29;20211;-78
2023/12/17 06:37:00;;;;;;;2.17;1.80;;;;;;;-145.69;64.04;52402.78;4938007;29;20769;-78
2023/12/17 06:39:27;;;;;;;2.00;1.67;;;;;;;-145.69;64.08;52450.31;4938591;29;20290;-79
2023/12/17 06:41:55;;;;;;;1.60;1.33;;;;;;;-145.69;64.29;52464.19;4923139;29;20212;-79
2023/12/17 06:44:21;;;;;;;2.13;1.67;;;;;;;-145.69;64.29;52448.34;4919384;29;20204;-76
2023/12/17 06:46:49;;;;;;;1.60;1.33;;;;;;;-145.69;64.22;52444.38;4919539;29;20212;-79
2023/12/17 06:49:16;;;;;;;2.20;1.47;;;;;;;-145.69;64.26;52424.59;4919506;29;20234;-78
2023/12/17 06:51:42;;;;;;;2.83;1.83;;;;;;;-145.69;64.14;52440.44;4919484;29;20290;-78
2023/12/17 06:54:09;;;;;;;2.70;1.67;;;;;;;-145.69;64.37;52414.69;4919294;29;20576;-78
2023/12/17 06:56:35;;;;;;;2.50;1.50;;;;;;;-145.69;63.80;52416.66;4930779;29;20231;-79
2023/12/17 06:59:03;;;;;;;1.97;1.60;;;;;;;-145.69;63.14;52444.38;4922108;29;20212;-79
2023/12/17 07:01:30;;;;;;;1.77;1.40;;;;;;;-145.69;64.04;52412.69;4919296;29;20200;-79
2023/12/17 07:03:56;;;;;;;2.03;1.37;;;;;;;-145.69;64.50;52440.44;4919163;29;20206;-77
2023/12/17 07:06:23;;;;;;;2.53;2.33;;;;;;;-145.69;64.69;52406.75;4919218;29;20203;-79
2023/12/17 07:08:49;;;;;;;2.57;1.43;;;;;;;-145.69;64.83;52456.28;4918827;29;20237;-78
2023/12/17 07:11:16;;;;;;;1.50;1.40;;;;;;;-145.69;64.76;52430.53;4919248;29;20219;-76
2023/12/17 07:13:42;;;;;;;1.77;1.40;;;;;;;-145.69;65.04;52468.16;4919024;29;20212;-78
2023/12/17 07:16:20;;;;;;;4.73;1.87;;;;;;;-145.69;65.13;52428.53;4919374;29;20239;-78
2023/12/17 07:18:47;;;;;;;2.00;1.67;;;;;;;-145.69;65.37;52444.38;4918914;29;20208;-78
2023/12/17 07:21:13;;;;;;;3.97;1.43;;;;;;;-145.69;65.35;52398.84;4918812;29;20204;-79
2023/12/17 07:23:40;;;;;;;3.57;1.40;;;;;;;-145.69;65.04;52416.66;4918699;29;20212;-78
2023/12/17 07:26:06;;;;;;;1.40;1.30;;;;;;;-145.69;65.03;52424.59;4925346;29;20647;-78
2023/12/17 07:28:33;;;;;;;3.27;1.80;;;;;;;-145.69;64.23;52406.75;4937638;29;20203;-78
2023/12/17 07:30:59;;;;;;;2.50;1.50;;;;;;;-145.69;64.74;52452.31;4937146;29;20199;-78
2023/12/17 07:33:27;;;;;;;4.93;1.33;;;;;;;-145.69;64.43;52426.56;4918646;29;20215;-78
2023/12/17 07:35:53;;;;;;;3.03;1.60;;;;;;;-145.69;65.06;52416.66;4918469;29;20212;-77
2023/12/17 07:38:20;;;;;;;2.57;1.57;;;;;;;-145.69;64.97;52420.63;4918238;29;20699;-77
2023/12/17 07:40:46;;;;;;;3.53;1.60;;;;;;;-145.69;65.18;52430.53;4918376;29;20536;-78
2023/12/17 07:43:13;;;;;;;1.60;1.40;;;;;;;-145.69;65.12;52424.59;4918305;29;20715;-78
2023/12/17 07:45:40;;;;;;;2.40;1.33;;;;;;;-145.69;65.49;52434.47;4918249;29;20604;-78
2023/12/17 07:48:07;;;;;;;2.00;1.53;;;;;;;-145.69;65.57;52434.47;4919428;29;20212;-78
2023/12/17 07:50:34;;;;;;;1.70;1.27;;;;;;;-145.69;65.60;52388.94;4937169;29;20295;-78
2023/12/17 07:53:01;;;;;;;1.90;1.57;;;;;;;-145.69;65.63;52432.50;4936924;29;20231;-78
2023/12/17 07:55:27;;;;;;;1.87;1.30;;;;;;;-145.69;65.51;52398.84;4935665;29;20222;-77
2023/12/17 07:57:54;;;;;;;2.60;1.57;;;;;;;-145.69;65.41;52440.44;4937070;29;20227;-78
2023/12/17 08:00:21;;;;;;;1.90;1.63;;;;;;;-145.69;65.78;52422.59;4937031;29;20702;-77
2023/12/17 08:02:47;;;;;;;1.77;1.40;;;;;;;-145.69;65.67;52416.66;4936888;29;20655;-77
2023/12/17 08:05:13;;;;;;;1.30;1.20;;;;;;;-145.69;65.87;52432.50;4934755;29;20295;-79
2023/12/17 08:07:41;;;;;;;1.47;1.27;;;;;;;-145.69;65.93;52381.00;4918033;29;20204;-77
2023/12/17 08:10:08;;;;;;;1.30;1.20;;;;;;;-145.69;66.28;52432.50;4917852;29;20274;-78
2023/12/17 08:12:34;;;;;;;1.70;1.30;;;;;;;-145.69;66.48;52410.72;4921701;29;20615;-78
2023/12/17 08:15:01;;;;;;;1.50;1.30;;;;;;;-145.69;66.26;52420.63;4936839;29;20208;-78
2023/12/17 08:17:30;;;;;;;2.17;1.33;;;;;;;-145.69;66.16;52406.75;4936571;29;20231;-78
2023/12/17 08:19:56;;;;;;;1.67;1.37;;;;;;;-145.69;66.27;52420.63;4936860;29;20267;-79
2023/12/17 08:22:23;;;;;;;2.40;1.40;;;;;;;-145.69;66.17;52412.69;4933266;29;20204;-78
2023/12/17 08:24:51;;;;;;;1.87;1.43;;;;;;;-145.69;66.14;52408.75;4917849;29;20207;-78
2023/12/17 08:27:18;;;;;;;3.57;1.50;;;;;;;-145.69;66.37;52420.63;4933181;29;20207;-79
2023/12/17 08:29:47;;;;;;;1.53;1.27;;;;;;;-145.69;66.35;52424.59;4936601;29;20203;-78
2023/12/17 08:32:14;;;;;;;3.03;1.90;;;;;;;-145.69;66.19;52412.69;4936360;29;20271;-78
2023/12/17 08:34:41;;;;;;;3.27;1.70;;;;;;;-145.69;66.28;52444.38;4936334;29;20208;-78
2023/12/17 08:37:07;;;;;;;2.47;1.47;;;;;;;-145.69;66.44;52438.44;4936469;29;20231;-78
2023/12/17 08:39:34;;;;;;;2.23;1.77;;;;;;;-145.69;66.60;52398.84;4931067;29;20216;-78
2023/12/17 08:42:01;;;;;;;6.73;1.90;;;;;;;-145.69;66.21;52404.78;4917406;29;20208;-78
2023/12/17 08:44:28;;;;;;;2.03;1.73;;;;;;;-145.69;66.41;52432.50;4917330;29;20616;-78
2023/12/17 08:46:55;;;;;;;1.50;1.40;;;;;;;-145.69;66.06;52416.66;4917036;29;20249;-77
2023/12/17 08:49:21;;;;;;;3.07;1.33;;;;;;;-145.69;64.89;52430.53;4917544;29;20204;-78
2023/12/17 08:51:48;;;;;;;2.40;1.13;;;;;;;-145.69;65.52;52420.63;4917297;29;20620;-78
2023/12/17 08:54:14;;;;;;;1.63;1.10;;;;;;;-145.69;66.19;52416.66;4916901;29;20208;-78
2023/12/17 08:56:41;;;;;;;3.13;1.30;;;;;;;-145.69;66.23;52424.59;4921995;29;20263;-78
2023/12/17 08:59:09;;;;;;;2.17;1.30;;;;;;;-145.69;66.23;52424.59;4917117;29;20300;-77
2023/12/17 09:01:36;;;;;;;2.07;1.43;;;;;;;-145.69;66.58;52414.69;4916943;29;20310;-78
2023/12/17 09:04:02;;;;;;;2.33;1.30;;;;;;;-145.69;66.64;52386.97;4917178;29;20553;-78
2023/12/17 09:06:28;;;;;;;5.67;2.60;;;;;;;-145.69;66.50;52430.53;4916974;29;20682;-78
2023/12/17 09:08:55;;;;;;;4.40;2.33;;;;;;;-145.69;66.28;52400.81;4916765;29;20247;-78
2023/12/17 09:11:21;;;;;;;2.37;1.80;;;;;;;-145.69;65.73;52416.66;4917090;29;20248;-78
2023/12/17 09:13:48;;;;;;;2.30;1.43;;;;;;;-145.69;64.59;52418.63;4917327;29;20612;-77
2023/12/17 09:16:16;;;;;;;2.73;1.10;;;;;;;-145.69;64.47;52392.91;4916691;29;20208;-77
2023/12/17 09:18:43;;;;;;;1.00;0.90;;;;;;;-145.69;64.33;52412.69;4916610;29;20619;-77
2023/12/17 09:21:09;;;;;;;1.30;1.20;;;;;;;-145.69;63.29;52400.81;4916815;29;20260;-78
2023/12/17 09:23:36;;;;;;;1.70;1.40;;;;;;;-145.69;63.44;52420.63;4916883;29;20267;-78
2023/12/17 09:26:02;;;;;;;1.17;1.07;;;;;;;-145.69;63.95;52398.84;4921940;29;20263;-78
2023/12/17 09:28:28;;;;;;;1.07;0.97;;;;;;;-145.69;64.69;52424.59;4935609;29;20207;-78
2023/12/17 09:30:55;;;;;;;1.57;1.07;;;;;;;-145.69;64.36;52392.91;4934844;29;20207;-78
2023/12/17 09:33:23;;;;;;;1.23;1.13;;;;;;;-145.69;64.48;52420.63;4935799;29;20614;-79
2023/12/17 09:35:49;;;;;;;2.37;1.30;;;;;;;-145.69;64.41;52400.81;4935658;29;20207;-78
2023/12/17 09:38:17;;;;;;;2.23;1.23;;;;;;;-145.69;64.46;52424.59;4935503;29;20235;-78
2023/12/17 09:40:46;;;;;;;2.20;1.27;;;;;;;-145.69;64.50;52392.91;4935533;29;20210;-77
2023/12/17 09:43:15;;;;;;;1.17;1.07;;;;;;;-145.69;63.89;52432.50;4935437;29;20199;-78
2023/12/17 09:45:42;;;;;;;1.40;1.30;;;;;;;-145.69;63.05;52383.00;4935519;29;20210;-77
2023/12/17 09:48:09;;;;;;;2.00;1.60;;;;;;;-145.69;63.31;52383.00;4934872;29;20207;-77
2023/12/17 09:50:36;;;;;;;2.27;1.70;;;;;;;-145.69;63.80;52379.03;4937600;29;20207;-78
2023/12/17 09:53:03;;;;;;;2.73;1.53;;;;;;;-145.69;63.85;52392.91;4939358;29;20200;-78
2023/12/17 09:55:29;;;;;;;2.17;1.70;;;;;;;-145.69;63.79;52418.63;4938859;29;20217;-78
2023/12/17 09:57:56;;;;;;;2.77;1.83;;;;;;;-145.69;63.02;52357.25;4939060;29;20542;-76
2023/12/17 10:00:22;;;;;;;2.13;1.80;;;;;;;-145.69;62.99;52434.47;4939385;29;20214;-76
2023/12/17 10:02:48;;;;;;;2.40;1.50;;;;;;;-145.69;62.92;52386.97;4939394;29;20239;-80
2023/12/17 10:05:15;;;;;;;2.70;1.63;;;;;;;-145.69;63.04;52381.00;4932777;29;20229;-79
2023/12/17 10:07:43;;;;;;;4.17;1.90;;;;;;;-145.69;62.26;52361.22;4939176;29;20208;-79
2023/12/17 10:10:10;;;;;;;3.63;2.13;;;;;;;-145.69;62.86;52396.84;4938813;29;20623;-79
2023/12/17 10:12:37;;;;;;;95.33;33.63;;;;;;;-145.69;63.02;52408.75;4938639;29;20195;-79
2023/12/17 10:15:05;;;;;;;49.00;17.90;;;;;;;-145.69;63.42;52373.09;4938701;29;20624;-78
2023/12/17 10:17:31;;;;;;;24.37;9.20;;;;;;;-145.69;63.49;52392.91;4938941;29;20238;-79
2023/12/17 10:19:57;;;;;;;14.20;6.43;;;;;;;-145.69;63.94;52381.00;4938991;29;20199;-78
2023/12/17 10:22:24;;;;;;;11.77;5.13;;;;;;;-145.69;63.96;52381.00;4927547;29;20264;-78
2023/12/17 10:24:51;;;;;;;15.60;7.07;;;;;;;-145.69;63.48;52365.16;4919762;29;20204;-79
2023/12/17 10:27:19;;;;;;;16.93;7.10;;;;;;;-145.69;63.39;52390.91;4933737;29;20278;-79
2023/12/17 10:29:49;;;;;;;12.03;5.73;;;;;;;-145.69;63.55;52388.94;4937545;29;20203;-77
2023/12/17 10:32:21;;;;;;;10.13;5.50;;;;;;;-145.69;63.81;52388.94;4938595;29;20570;-77
2023/12/17 10:34:49;;;;;;;15.33;6.00;;;;;;;-145.69;63.37;52351.31;4938731;29;20251;-77
2023/12/17 10:37:18;;;;;;;11.90;5.63;;;;;;;-145.69;63.94;52410.72;4938329;29;20544;-77
2023/12/17 10:39:47;;;;;;;8.10;5.13;;;;;;;-145.69;63.72;52373.09;4924577;29;20643;-77
2023/12/17 10:42:17;;;;;;;8.73;5.60;;;;;;;-145.69;63.36;52384.97;4919772;29;20208;-77
2023/12/17 10:44:44;;;;;;;7.07;4.30;;;;;;;-145.69;62.96;52388.94;4919582;29;20605;-77
2023/12/17 10:47:12;;;;;;;9.07;5.40;;;;;;;-145.69;62.67;52369.13;4919347;29;20231;-77
2023/12/17 10:49:39;;;;;;;9.23;5.93;;;;;;;-145.69;62.76;52343.38;4919067;29;20244;-78
2023/12/17 10:52:07;;;;;;;8.73;5.00;;;;;;;-145.69;62.71;52349.31;4919441;29;20208;-78
2023/12/17 10:54:33;;;;;;;9.20;5.43;;;;;;;-145.69;62.66;52392.91;4919402;29;20204;-78
2023/12/17 10:57:01;;;;;;;13.30;4.40;;;;;;;-145.69;61.53;52345.38;4919824;29;20212;-78
2023/12/17 10:59:34;;;;;;;10.20;5.33;;;;;;;-145.69;61.24;52361.22;4932096;29;20235;-78
2023/12/17 11:02:02;;;;;;;9.00;4.43;;;;;;;-145.69;60.95;52400.81;4937558;29;20563;-78
2023/12/17 11:04:28;;;;;;;7.63;4.00;;;;;;;-145.69;61.34;52412.69;4938042;29;20208;-77
2023/12/17 11:06:55;;;;;;;6.43;3.90;;;;;;;-145.69;60.29;52371.13;4938192;29;20203;-77
2023/12/17 11:09:21;;;;;;;7.37;4.27;;;;;;;-145.69;60.60;52377.06;4937753;29;20239;-80
2023/12/17 11:11:48;;;;;;;6.60;4.10;;;;;;;-145.69;61.39;52402.78;4937657;29;20200;-79
2023/12/17 11:14:15;;;;;;;10.00;4.53;;;;;;;-145.69;60.28;52361.22;4921159;29;20211;-79